Aérodrome :
LOGIN :

S'inscrire | Disclaimer

   EN    FR    IT 

 










Légende :    VFR   VFR Marginal   IFR   IFR Intensif   IFR Très Intensif
Visi : 
Plafond : 
>= 8 km
>= 3000ft
5 à 8 km
1000 à 3000 ft
1500m à 5 km
500 à 1000 ft
800 à 1500m
200 à 500 ft
< 800m
< 200 ft
Symboles :   Orages  Brouillard  Fortes neiges  Fortes précipitations  Vent > 20 kt
SIGMETs :   Divers  Orages  Givrage  Turbulence  Onde Orograph.  Cendres Volcan.






- Altitude de l'aérodrome : 200 ft


EBBL - Klein Brogel AB

DERNIER METAR :
  • 190555Z 23006KT 9999 BKN036 BKN051 OVC097 04/03 Q1015 BLU

METARs EXPIRÉS :
  • 190525Z AUTO 24008KT 9999 FEW035/// SCT050/// BKN061/// 04/03 Q1015 BLU
  • 190455Z AUTO 23009KT 9999 BKN041/// 04/03 Q1014 BLU
  • 190425Z AUTO 23007KT 9999 -DZ BKN037/// OVC090/// 03/02 Q1014 BLU
  • 190355Z AUTO 24007KT 9999 SCT035/// SCT091/// BKN100/// 04/02 Q1014 BLU
  • 190325Z AUTO 24007KT 9999 FEW037/// BKN095/// 04/02 Q1014 BLU

TAF TAF EBBL
Valide du 18 à 19h jusqu'au 19 à 07h UTC


181541Z 1819/1907 27005KT 6000 -RA BKN007 BKN014
TEMPO 1819/1820 3000 RA BKN005 BKN010
BECMG 1820/1822 31005KT 8000 NSW SCT010 BKN016
BECMG 1900/1902 26003KT 6000 SCT020



MET'MAP, la Météo Aéronautique d'un coup d'oeil ! - Copyright ORBIFLY Décembre 2007 - Disclaimer

ORBIFLY MET'MAP TEAM :

Programmation & Développement : Alexandra Zaïnal
Conception & Développement : Baudouin d'Aumeries
Co-Programmation & Développement : Marc-Olivier Méhu
Soutien technique & logistique : Manuel Goepfert

Contact : metmap@orbifly.com




SOURCES & CREDITS :

   NOAA